createdAt,value
2018-05-09T00:00:46.729Z,21.50
2018-05-09T00:03:13.262Z,21.40
2018-05-09T00:05:39.737Z,21.42
2018-05-09T00:08:06.220Z,21.51
2018-05-09T00:10:32.585Z,21.41
2018-05-09T00:12:59.113Z,21.32
2018-05-09T00:15:25.487Z,21.33
2018-05-09T00:17:52.011Z,21.45
2018-05-09T00:20:19.116Z,21.32
2018-05-09T00:22:45.602Z,21.28
2018-05-09T00:25:12.707Z,21.25
2018-05-09T00:27:39.077Z,21.23
2018-05-09T00:30:06.270Z,21.25
2018-05-09T00:32:32.641Z,21.21
2018-05-09T00:34:58.986Z,21.21
2018-05-09T00:37:26.073Z,21.18
2018-05-09T00:39:52.377Z,21.19
2018-05-09T00:42:18.673Z,21.21
2018-05-09T00:44:44.997Z,21.02
2018-05-09T00:47:11.383Z,20.99
2018-05-09T00:49:37.710Z,21.21
2018-05-09T00:52:04.090Z,21.27
2018-05-09T00:54:32.342Z,21.05
2018-05-09T00:56:58.809Z,21.04
2018-05-09T00:59:25.870Z,21.00
2018-05-09T01:01:53.102Z,21.04
2018-05-09T01:04:19.520Z,21.01
2018-05-09T01:06:45.847Z,20.99
2018-05-09T01:09:12.197Z,20.94
2018-05-09T01:11:39.506Z,20.97
2018-05-09T01:14:06.012Z,20.87
2018-05-09T01:16:32.355Z,20.85
2018-05-09T01:18:58.687Z,20.84
2018-05-09T01:21:25.087Z,20.81
2018-05-09T01:23:52.182Z,20.78
2018-05-09T01:26:18.738Z,20.73
2018-05-09T01:28:45.057Z,20.73
2018-05-09T01:31:11.428Z,20.77
2018-05-09T01:33:37.798Z,20.72
2018-05-09T01:36:04.214Z,20.59
2018-05-09T01:38:30.620Z,20.60
2018-05-09T01:40:57.046Z,20.55
2018-05-09T01:43:24.083Z,20.53
2018-05-09T01:45:50.415Z,20.53
2018-05-09T01:48:17.480Z,20.52
2018-05-09T01:50:43.841Z,20.44
2018-05-09T01:53:10.363Z,20.50
2018-05-09T01:55:36.666Z,20.46
2018-05-09T01:58:03.132Z,20.54
2018-05-09T02:00:29.995Z,20.56
2018-05-09T02:02:56.370Z,20.63
2018-05-09T02:05:22.733Z,20.52
2018-05-09T02:07:49.084Z,20.51
2018-05-09T02:10:15.453Z,20.44
2018-05-09T02:12:42.550Z,20.44
2018-05-09T02:15:08.929Z,20.38
2018-05-09T02:17:35.312Z,20.42
2018-05-09T02:20:01.694Z,20.31
2018-05-09T02:22:28.788Z,20.28
2018-05-09T02:24:55.121Z,20.21
2018-05-09T02:27:21.444Z,20.11
2018-05-09T02:29:47.781Z,20.06
2018-05-09T02:32:14.088Z,20.05
2018-05-09T02:34:40.436Z,19.98
2018-05-09T02:37:06.777Z,20.05
2018-05-09T02:39:33.655Z,19.94
2018-05-09T02:41:59.905Z,19.90
2018-05-09T02:44:26.259Z,19.94
2018-05-09T02:46:52.568Z,19.95
2018-05-09T02:49:18.897Z,19.87
2018-05-09T02:51:45.301Z,19.90
2018-05-09T02:54:11.694Z,19.77
2018-05-09T02:56:38.051Z,19.82
2018-05-09T02:59:04.389Z,19.76
2018-05-09T03:01:30.765Z,19.73
2018-05-09T03:03:57.131Z,19.75
2018-05-09T03:06:23.493Z,19.82
2018-05-09T03:08:50.647Z,19.83
2018-05-09T03:11:17.737Z,19.76
2018-05-09T03:13:44.075Z,19.78
2018-05-09T03:16:10.457Z,19.77
2018-05-09T03:18:37.566Z,19.76
2018-05-09T03:21:03.906Z,19.70
2018-05-09T03:23:30.218Z,19.65
2018-05-09T03:25:56.555Z,19.44
2018-05-09T03:28:22.914Z,19.34
2018-05-09T03:30:50.056Z,19.02
2018-05-09T03:33:17.104Z,19.06
2018-05-09T03:35:44.226Z,18.95
2018-05-09T03:38:10.537Z,18.77
2018-05-09T03:40:37.375Z,18.40
2018-05-09T03:43:03.765Z,18.39
2018-05-09T03:45:30.110Z,18.08
2018-05-09T03:47:56.423Z,17.93
2018-05-09T03:50:23.493Z,18.08
2018-05-09T03:52:49.828Z,18.12
2018-05-09T03:55:16.370Z,18.06
2018-05-09T03:57:42.734Z,18.07
2018-05-09T04:00:09.081Z,17.99
2018-05-09T04:02:53.786Z,18.03
2018-05-09T04:05:38.562Z,17.86
2018-05-09T04:08:23.309Z,17.88
2018-05-09T04:10:49.689Z,17.70
2018-05-09T04:13:16.975Z,17.80
2018-05-09T04:15:43.317Z,17.52
2018-05-09T04:18:09.605Z,17.52
2018-05-09T04:20:36.789Z,17.44
2018-05-09T04:23:03.098Z,17.57
2018-05-09T04:25:30.213Z,17.35
2018-05-09T04:27:56.561Z,17.45
2018-05-09T04:30:22.906Z,17.42
2018-05-09T04:32:50.029Z,17.60
2018-05-09T04:35:16.519Z,17.42
2018-05-09T04:37:42.965Z,17.53
2018-05-09T04:40:09.283Z,17.35
2018-05-09T04:42:35.625Z,17.41
2018-05-09T04:45:01.916Z,17.44
2018-05-09T04:47:28.308Z,17.39
2018-05-09T04:49:54.823Z,17.38
2018-05-09T04:52:22.051Z,17.38
2018-05-09T04:54:48.450Z,17.22
2018-05-09T04:57:14.982Z,17.35
2018-05-09T04:59:42.138Z,17.36
2018-05-09T05:02:08.678Z,17.39
2018-05-09T05:04:36.093Z,17.72
2018-05-09T05:07:02.591Z,17.66
2018-05-09T05:09:28.893Z,17.75
2018-05-09T05:11:55.227Z,17.80
2018-05-09T05:14:22.353Z,18.00
2018-05-09T05:16:48.718Z,18.22
2018-05-09T05:19:15.121Z,18.22
2018-05-09T05:21:41.484Z,18.17
2018-05-09T05:24:07.878Z,18.14
2018-05-09T05:26:34.934Z,18.16
2018-05-09T05:29:02.063Z,18.25
2018-05-09T05:31:28.422Z,18.36
2018-05-09T05:33:54.771Z,18.45
2018-05-09T05:36:21.142Z,18.26
2018-05-09T05:38:48.097Z,18.59
2018-05-09T05:41:14.463Z,18.92
2018-05-09T05:43:40.798Z,19.99
2018-05-09T05:46:07.230Z,20.91
2018-05-09T05:48:33.693Z,21.00
2018-05-09T05:51:00.084Z,20.91
2018-05-09T05:53:27.195Z,20.96
2018-05-09T05:55:53.584Z,20.77
2018-05-09T05:58:19.946Z,20.25
2018-05-09T06:00:46.308Z,20.57
2018-05-09T06:03:13.416Z,20.91
2018-05-09T06:05:39.774Z,20.92
2018-05-09T06:08:06.107Z,20.52
2018-05-09T06:10:32.740Z,19.92
2018-05-09T06:12:59.169Z,20.12
2018-05-09T06:15:25.518Z,20.96
2018-05-09T06:17:52.654Z,21.02
2018-05-09T06:20:19.086Z,21.69
2018-05-09T06:22:45.475Z,22.45
2018-05-09T06:25:11.796Z,23.07
2018-05-09T06:27:38.126Z,23.95
2018-05-09T06:30:04.547Z,24.28
2018-05-09T06:32:30.941Z,25.28
2018-05-09T06:34:57.243Z,25.77
2018-05-09T06:37:23.907Z,26.95
2018-05-09T06:39:50.210Z,27.15
2018-05-09T06:42:16.570Z,27.94
2018-05-09T06:44:42.905Z,28.54
2018-05-09T06:47:10.043Z,28.54
2018-05-09T06:49:36.451Z,27.80
2018-05-09T06:52:02.816Z,26.93
2018-05-09T06:54:29.899Z,27.82
2018-05-09T06:56:56.233Z,26.75
2018-05-09T06:59:22.565Z,27.09
2018-05-09T07:01:48.906Z,26.94
2018-05-09T07:04:15.241Z,25.24
2018-05-09T07:06:42.137Z,24.66
2018-05-09T07:09:09.005Z,23.79
2018-05-09T07:11:35.396Z,23.17
2018-05-09T07:14:01.864Z,22.75
2018-05-09T07:16:28.274Z,22.18
2018-05-09T07:18:54.632Z,22.06
2018-05-09T07:21:20.964Z,22.33
2018-05-09T07:23:47.378Z,22.44
2018-05-09T07:26:13.827Z,22.37
2018-05-09T07:28:40.217Z,22.60
2018-05-09T07:31:06.590Z,22.53
2018-05-09T07:33:32.919Z,22.64
2018-05-09T07:35:59.329Z,22.77
2018-05-09T07:38:25.767Z,22.71
2018-05-09T07:40:52.087Z,22.73
2018-05-09T07:43:18.506Z,22.51
2018-05-09T07:45:44.878Z,22.80
2018-05-09T07:48:11.250Z,22.90
2018-05-09T07:50:37.698Z,23.21
2018-05-09T07:53:04.777Z,23.46
2018-05-09T07:55:31.119Z,23.03
2018-05-09T07:57:57.470Z,23.16
2018-05-09T08:00:23.882Z,23.25
2018-05-09T08:02:50.251Z,23.26
2018-05-09T08:05:16.636Z,23.30
2018-05-09T08:07:43.061Z,23.67
2018-05-09T08:10:09.394Z,23.65
2018-05-09T08:12:35.869Z,23.84
2018-05-09T08:15:02.889Z,24.00
2018-05-09T08:17:29.267Z,24.01
2018-05-09T08:19:56.413Z,23.91
2018-05-09T08:22:22.895Z,24.06
2018-05-09T08:24:49.241Z,24.10
2018-05-09T08:27:15.606Z,23.92
2018-05-09T08:29:42.666Z,23.87
2018-05-09T08:32:09.003Z,23.66
2018-05-09T08:34:35.373Z,23.48
2018-05-09T08:37:01.683Z,23.78
2018-05-09T08:39:28.029Z,23.91
2018-05-09T08:41:54.398Z,23.92
2018-05-09T08:44:21.566Z,23.97
2018-05-09T08:46:47.987Z,23.98
2018-05-09T08:49:18.824Z,23.61
2018-05-09T08:51:45.079Z,24.00
2018-05-09T08:54:11.380Z,24.14
2018-05-09T08:56:38.672Z,23.83
2018-05-09T08:59:05.501Z,23.91
2018-05-09T09:01:31.860Z,23.90
2018-05-09T09:03:58.202Z,24.04
2018-05-09T09:06:24.634Z,24.33
2018-05-09T09:08:53.440Z,24.19
2018-05-09T09:11:19.779Z,24.35
2018-05-09T09:13:46.116Z,24.48
2018-05-09T09:16:13.300Z,24.57
2018-05-09T09:18:39.946Z,24.02
2018-05-09T09:21:06.407Z,24.47
2018-05-09T09:23:32.851Z,24.75
2018-05-09T09:26:00.053Z,24.76
2018-05-09T09:28:26.396Z,24.42
2018-05-09T09:30:52.732Z,24.67
2018-05-09T09:33:19.078Z,24.60
2018-05-09T09:35:45.463Z,24.37
2018-05-09T09:38:11.860Z,24.51
2018-05-09T09:40:38.934Z,24.98
2018-05-09T09:43:05.250Z,24.97
2018-05-09T09:45:32.333Z,25.19
2018-05-09T09:47:58.683Z,25.17
2018-05-09T09:50:25.094Z,25.01
2018-05-09T09:52:51.437Z,24.44
2018-05-09T09:55:17.774Z,24.67
2018-05-09T09:57:44.104Z,24.83
2018-05-09T10:00:10.866Z,25.00
2018-05-09T10:02:37.134Z,25.08
2018-05-09T10:05:03.508Z,25.09
2018-05-09T10:07:29.901Z,25.68
2018-05-09T10:09:56.233Z,25.46
2018-05-09T10:12:22.652Z,25.62
2018-05-09T10:14:49.032Z,25.57
2018-05-09T10:17:15.383Z,25.70
2018-05-09T10:19:42.538Z,25.86
2018-05-09T10:22:08.906Z,25.88
2018-05-09T10:24:35.282Z,26.03
2018-05-09T10:27:01.622Z,26.10
2018-05-09T10:29:28.046Z,25.80
2018-05-09T10:31:54.443Z,25.63
2018-05-09T10:34:20.785Z,25.69
2018-05-09T10:36:47.071Z,26.15
2018-05-09T10:39:14.134Z,26.43
2018-05-09T10:41:40.461Z,26.84
2018-05-09T10:44:06.786Z,26.64
2018-05-09T10:46:33.089Z,27.39
2018-05-09T10:49:00.160Z,26.86
2018-05-09T10:51:26.497Z,27.61
2018-05-09T10:53:52.865Z,27.98
2018-05-09T10:56:19.233Z,26.34
2018-05-09T10:58:45.593Z,25.93
2018-05-09T11:01:11.915Z,26.14
2018-05-09T11:03:38.433Z,25.93
2018-05-09T11:06:04.748Z,25.92
2018-05-09T11:08:31.869Z,26.11
2018-05-09T11:10:58.224Z,25.75
2018-05-09T11:13:25.364Z,25.77
2018-05-09T11:15:51.934Z,25.88
2018-05-09T11:18:18.279Z,25.97
2018-05-09T11:20:44.820Z,26.33
2018-05-09T11:23:11.120Z,26.12
2018-05-09T11:25:37.406Z,26.01
2018-05-09T11:28:03.852Z,25.68
2018-05-09T11:30:30.237Z,25.51
2018-05-09T11:32:56.734Z,25.57
2018-05-09T11:35:23.065Z,25.59
2018-05-09T11:37:49.419Z,25.57
2018-05-09T11:40:15.816Z,25.97
2018-05-09T11:42:42.218Z,25.74
2018-05-09T11:45:08.733Z,25.18
2018-05-09T11:47:35.097Z,24.95
2018-05-09T11:50:01.504Z,25.29
2018-05-09T11:52:27.925Z,25.93
2018-05-09T11:54:55.032Z,26.50
2018-05-09T11:57:21.649Z,26.88
2018-05-09T11:59:48.353Z,27.08
2018-05-09T12:02:15.437Z,27.69
2018-05-09T12:04:41.965Z,27.45
2018-05-09T12:07:08.812Z,27.61
2018-05-09T12:09:35.420Z,27.49
2018-05-09T12:12:01.817Z,27.62
2018-05-09T12:14:28.305Z,27.51
2018-05-09T12:16:55.508Z,27.42
2018-05-09T12:19:22.346Z,27.64
2018-05-09T12:21:48.743Z,27.40
2018-05-09T12:24:15.845Z,27.73
2018-05-09T12:26:42.521Z,28.20
2018-05-09T12:29:10.175Z,28.61
2018-05-09T12:31:37.398Z,28.18
2018-05-09T12:34:03.999Z,28.40
2018-05-09T12:36:30.527Z,28.18
2018-05-09T12:38:56.837Z,27.71
2018-05-09T12:41:24.401Z,27.45
2018-05-09T12:43:51.292Z,27.68
2018-05-09T12:46:17.702Z,28.18
2018-05-09T12:48:44.198Z,28.14
2018-05-09T12:51:10.519Z,28.12
2018-05-09T12:53:37.849Z,28.27
2018-05-09T12:56:04.321Z,27.64
2018-05-09T12:58:31.406Z,27.03
2018-05-09T13:00:57.751Z,26.91
2018-05-09T13:03:24.338Z,26.30
2018-05-09T13:05:51.485Z,26.08
2018-05-09T13:08:18.764Z,26.06
2018-05-09T13:10:45.348Z,25.79
2018-05-09T13:13:12.034Z,25.70
2018-05-09T13:15:39.598Z,25.73
2018-05-09T13:18:06.100Z,26.04
2018-05-09T13:20:32.517Z,26.60
2018-05-09T13:22:59.762Z,26.92
2018-05-09T13:25:26.407Z,27.00
2018-05-09T13:27:52.979Z,27.36
2018-05-09T13:30:19.617Z,27.31
2018-05-09T13:32:46.152Z,27.34
2018-05-09T13:35:12.658Z,27.32
2018-05-09T13:37:45.327Z,27.72
2018-05-09T13:40:11.812Z,27.44
2018-05-09T13:42:38.226Z,27.04
2018-05-09T13:45:04.564Z,27.13
2018-05-09T13:47:31.491Z,27.48
2018-05-09T13:49:57.844Z,27.73
2018-05-09T13:52:24.261Z,27.41
2018-05-09T13:54:50.696Z,27.32
2018-05-09T13:57:17.201Z,27.77
2018-05-09T13:59:51.392Z,28.07
2018-05-09T14:02:17.857Z,28.65
2018-05-09T14:04:44.227Z,28.17
2018-05-09T14:07:10.634Z,27.90
2018-05-09T14:09:37.034Z,27.88
2018-05-09T14:12:03.559Z,28.44
2018-05-09T14:14:30.114Z,28.88
2018-05-09T14:16:56.676Z,28.41
2018-05-09T14:19:23.043Z,28.31
2018-05-09T14:21:49.402Z,28.56
2018-05-09T14:24:15.781Z,28.93
2018-05-09T14:26:42.126Z,29.15
2018-05-09T14:29:08.543Z,28.29
2018-05-09T14:31:35.051Z,28.43
2018-05-09T14:34:01.467Z,28.99
2018-05-09T14:36:27.887Z,29.11
2018-05-09T14:38:55.088Z,29.43
2018-05-09T14:41:21.612Z,29.14
2018-05-09T14:43:48.178Z,29.16
2018-05-09T14:46:14.564Z,28.72
2018-05-09T14:48:40.966Z,28.13
2018-05-09T14:51:08.117Z,28.23
2018-05-09T14:53:34.836Z,28.35
2018-05-09T14:56:01.308Z,28.29
2018-05-09T14:58:27.764Z,28.56
2018-05-09T15:00:54.120Z,28.65
2018-05-09T15:03:20.443Z,28.83
2018-05-09T15:05:46.817Z,29.10
2018-05-09T15:08:13.975Z,29.06
2018-05-09T15:10:40.324Z,29.15
2018-05-09T15:13:06.676Z,29.27
2018-05-09T15:15:33.148Z,28.54
2018-05-09T15:18:00.361Z,28.74
2018-05-09T15:20:26.742Z,28.55
2018-05-09T15:22:53.127Z,27.67
2018-05-09T15:25:19.584Z,27.37
2018-05-09T15:27:46.710Z,27.54
2018-05-09T15:30:13.135Z,27.75
2018-05-09T15:32:39.639Z,28.12
2018-05-09T15:35:05.942Z,27.43
2018-05-09T15:37:33.120Z,27.00
2018-05-09T15:39:59.630Z,26.46
2018-05-09T15:42:26.398Z,26.78
2018-05-09T15:44:52.756Z,27.16
2018-05-09T15:47:19.874Z,27.18
2018-05-09T15:49:46.249Z,27.46
2018-05-09T15:52:12.619Z,27.87
2018-05-09T15:54:39.231Z,27.84
2018-05-09T15:57:05.819Z,28.42
2018-05-09T15:59:32.191Z,28.76
2018-05-09T16:01:59.395Z,28.78
2018-05-09T16:04:25.944Z,28.04
2018-05-09T16:06:52.291Z,28.18
2018-05-09T16:09:18.750Z,28.06
2018-05-09T16:11:46.050Z,28.11
2018-05-09T16:14:12.429Z,28.06
2018-05-09T16:16:39.527Z,28.04
2018-05-09T16:19:05.892Z,28.15
2018-05-09T16:21:32.319Z,27.85
2018-05-09T16:23:58.736Z,27.81
2018-05-09T16:26:25.110Z,27.77
2018-05-09T16:28:51.541Z,28.12
2018-05-09T16:31:18.667Z,28.15
2018-05-09T16:33:44.999Z,27.65
2018-05-09T16:36:11.424Z,27.23
2018-05-09T16:38:37.765Z,27.14
2018-05-09T16:41:04.286Z,26.98
2018-05-09T16:43:31.779Z,26.89
2018-05-09T16:45:58.496Z,26.90
2018-05-09T16:48:25.586Z,26.74
2018-05-09T16:50:52.074Z,26.57
2018-05-09T16:53:18.548Z,26.42
2018-05-09T16:55:45.396Z,26.30
2018-05-09T16:58:11.790Z,26.23
2018-05-09T17:00:38.977Z,26.29
2018-05-09T17:03:05.318Z,26.34
2018-05-09T17:05:31.810Z,26.40
2018-05-09T17:07:58.271Z,26.60
2018-05-09T17:10:24.634Z,26.56
2018-05-09T17:12:51.121Z,26.56
2018-05-09T17:15:17.627Z,26.59
2018-05-09T17:17:44.002Z,26.60
2018-05-09T17:20:10.370Z,26.48
2018-05-09T17:22:36.814Z,26.54
2018-05-09T17:25:03.277Z,26.49
2018-05-09T17:27:29.768Z,26.44
2018-05-09T17:29:56.124Z,26.28
2018-05-09T17:32:23.267Z,26.23
2018-05-09T17:34:50.059Z,26.07
2018-05-09T17:37:16.476Z,26.07
2018-05-09T17:39:42.878Z,26.04
2018-05-09T17:42:10.107Z,25.81
2018-05-09T17:44:36.517Z,25.67
2018-05-09T17:47:02.849Z,25.84
2018-05-09T17:49:29.287Z,25.78
2018-05-09T17:51:55.853Z,25.61
2018-05-09T17:54:22.961Z,25.66
2018-05-09T17:56:49.443Z,25.39
2018-05-09T17:59:16.006Z,25.16
2018-05-09T18:01:42.487Z,25.16
2018-05-09T18:04:09.110Z,24.85
2018-05-09T18:06:35.555Z,24.88
2018-05-09T18:09:01.990Z,24.90
2018-05-09T18:11:28.485Z,24.73
2018-05-09T18:13:54.824Z,24.55
2018-05-09T18:16:21.192Z,24.43
2018-05-09T18:18:47.971Z,24.30
2018-05-09T18:21:14.404Z,24.17
2018-05-09T18:23:40.793Z,24.19
2018-05-09T18:26:07.449Z,24.06
2018-05-09T18:28:34.050Z,23.68
2018-05-09T18:31:00.395Z,23.52
2018-05-09T18:33:27.701Z,23.63
2018-05-09T18:35:54.687Z,23.32
2018-05-09T18:38:21.192Z,23.17
2018-05-09T18:40:48.540Z,23.07
2018-05-09T18:43:14.905Z,22.84
2018-05-09T18:45:41.398Z,22.67
2018-05-09T18:48:07.830Z,22.58
2018-05-09T18:50:34.491Z,22.50
2018-05-09T18:53:01.352Z,22.36
2018-05-09T18:55:28.226Z,22.31
2018-05-09T18:57:56.131Z,22.17
2018-05-09T19:00:22.545Z,22.13
2018-05-09T19:02:49.063Z,22.09
2018-05-09T19:05:15.580Z,21.95
2018-05-09T19:07:42.262Z,21.75
2018-05-09T19:10:08.927Z,21.65
2018-05-09T19:12:36.588Z,21.58
2018-05-09T19:15:04.304Z,21.41
2018-05-09T19:17:30.840Z,21.29
2018-05-09T19:19:58.185Z,21.16
2018-05-09T19:22:24.771Z,21.09
2018-05-09T19:24:51.470Z,21.07
2018-05-09T19:27:17.812Z,21.03
2018-05-09T19:29:44.180Z,20.98
2018-05-09T19:32:10.592Z,20.85
2018-05-09T19:34:37.007Z,20.79
2018-05-09T19:37:03.590Z,20.71
2018-05-09T19:39:30.505Z,20.70
2018-05-09T19:41:57.994Z,20.69
2018-05-09T19:44:25.514Z,20.72
2018-05-09T19:46:52.125Z,20.71
2018-05-09T19:49:19.082Z,20.63
2018-05-09T19:51:45.661Z,20.61
2018-05-09T19:54:12.261Z,20.54
2018-05-09T19:56:39.172Z,20.55
2018-05-09T19:59:05.976Z,20.45
2018-05-09T20:01:32.939Z,20.46
2018-05-09T20:04:04.238Z,20.43
2018-05-09T20:06:31.057Z,20.45
2018-05-09T20:08:57.768Z,20.51
2018-05-09T20:11:25.213Z,20.54
2018-05-09T20:13:52.056Z,20.58
2018-05-09T20:16:19.679Z,20.59
2018-05-09T20:18:46.911Z,20.60
2018-05-09T20:21:13.799Z,20.64
2018-05-09T20:23:41.028Z,20.81
2018-05-09T20:26:32.014Z,20.78
2018-05-09T20:29:01.775Z,20.79
2018-05-09T20:31:53.030Z,20.79
2018-05-09T20:34:20.061Z,20.37
2018-05-09T20:36:47.954Z,20.25
2018-05-09T20:39:15.194Z,20.20
2018-05-09T20:41:42.907Z,20.12
2018-05-09T20:44:10.226Z,20.09
2018-05-09T20:46:37.079Z,19.92
2018-05-09T20:49:03.798Z,19.88
2018-05-09T20:51:49.268Z,19.97
2018-05-09T20:54:16.923Z,20.05
2018-05-09T20:56:44.039Z,20.37
2018-05-09T20:59:11.262Z,20.28
2018-05-09T21:01:53.328Z,20.37
2018-05-09T21:04:19.828Z,20.50
2018-05-09T21:06:46.355Z,20.35
2018-05-09T21:09:17.249Z,20.46
2018-05-09T21:12:09.546Z,20.44
2018-05-09T21:14:44.378Z,20.39
2018-05-09T21:17:10.873Z,20.61
2018-05-09T21:19:37.422Z,20.58
2018-05-09T21:22:03.892Z,20.52
2018-05-09T21:24:30.721Z,20.44
2018-05-09T21:26:57.242Z,20.64
2018-05-09T21:29:23.964Z,20.88
2018-05-09T21:31:54.115Z,20.94
2018-05-09T21:34:21.603Z,21.09
2018-05-09T21:36:48.236Z,20.90
2018-05-09T21:39:20.491Z,21.25
2018-05-09T21:41:47.795Z,21.61
2018-05-09T21:44:15.088Z,21.56
2018-05-09T21:46:41.603Z,21.67
2018-05-09T21:49:08.351Z,21.84
2018-05-09T21:51:34.710Z,21.95
2018-05-09T21:54:01.175Z,21.99
2018-05-09T21:56:27.733Z,22.03
2018-05-09T21:58:54.302Z,22.16
2018-05-09T22:01:22.667Z,22.16
2018-05-09T22:03:49.934Z,22.37
2018-05-09T22:06:16.459Z,22.27
2018-05-09T22:08:43.034Z,22.09
2018-05-09T22:11:10.670Z,21.72
2018-05-09T22:13:37.406Z,21.59
2018-05-09T22:16:03.876Z,21.30
2018-05-09T22:18:30.437Z,21.03
2018-05-09T22:20:56.964Z,20.76
2018-05-09T22:23:23.588Z,20.72
2018-05-09T22:25:50.146Z,20.54
2018-05-09T22:28:17.392Z,20.55
2018-05-09T22:30:44.869Z,20.76
2018-05-09T22:33:11.275Z,20.95
2018-05-09T22:35:37.836Z,21.28
2018-05-09T22:38:04.255Z,21.35
2018-05-09T22:40:30.799Z,21.54
2018-05-09T22:42:57.436Z,21.66
2018-05-09T22:45:23.869Z,21.68
2018-05-09T22:47:50.385Z,21.83
2018-05-09T22:50:16.977Z,21.92
2018-05-09T22:52:43.552Z,22.01
2018-05-09T22:55:10.090Z,21.82
2018-05-09T22:57:36.491Z,21.93
2018-05-09T23:00:08.408Z,21.93
2018-05-09T23:02:34.921Z,22.11
2018-05-09T23:05:01.513Z,22.06
2018-05-09T23:07:28.809Z,21.89
2018-05-09T23:09:55.236Z,21.62
2018-05-09T23:12:21.682Z,21.27
2018-05-09T23:14:48.123Z,21.16
2018-05-09T23:17:15.424Z,20.90
2018-05-09T23:19:42.894Z,20.67
2018-05-09T23:22:09.838Z,20.52
2018-05-09T23:24:36.473Z,20.49
2018-05-09T23:27:03.046Z,20.58
2018-05-09T23:29:29.480Z,20.54
2018-05-09T23:31:56.080Z,20.59
2018-05-09T23:34:23.018Z,20.51
2018-05-09T23:36:54.155Z,20.66
2018-05-09T23:39:21.351Z,20.42
2018-05-09T23:41:52.122Z,20.58
2018-05-09T23:44:18.653Z,20.49
2018-05-09T23:46:45.401Z,20.54
2018-05-09T23:49:12.815Z,20.52
2018-05-09T23:51:39.309Z,20.66
2018-05-09T23:54:05.783Z,20.50
2018-05-09T23:56:36.612Z,20.56
2018-05-09T23:59:03.066Z,20.36
